Time;durP1;ratioP1;P1;durP2;ratioP2;P2;SDS_P1;SDS_P2;PMS_P1;PMS_P2;Temp;Humidity;BMP_temperature;BMP_pressure;BME280_temperature;BME280_humidity;BME280_pressure;Samples;Min_cycle;Max_cycle;Signal;HPM_P1;HPM_P2
2022/06/25 00:01:09;;;;;;;;;;;;;;;;;;5077245;28;19909;-41
2022/06/25 00:03:34;;;;;;;;;;;;;;;;;;5077295;28;20346;-42
2022/06/25 00:05:59;;;;;;;;;;;;;;;;;;5076896;28;19962;-43
2022/06/25 00:08:24;;;;;;;;;;;;;;;;;;5058768;28;19909;-43
2022/06/25 00:10:49;;;;;;;;;;;;;;;;;;5077002;28;19916;-41
2022/06/25 00:13:14;;;;;;;;;;;;;;;;;;5076642;28;19920;-41
2022/06/25 00:15:40;;;;;;;;;;;;;;;;;;5076524;28;19912;-42
2022/06/25 00:18:05;;;;;;;;;;;;;;;;;;5076548;28;19909;-42
2022/06/25 00:20:30;;;;;;;;;;;;;;;;;;5076465;28;19973;-43
2022/06/25 00:22:55;;;;;;;;;;;;;;;;;;5076674;28;20402;-42
2022/06/25 00:25:20;;;;;;;;;;;;;;;;;;5076876;28;20310;-42
2022/06/25 00:27:45;;;;;;;;;;;;;;;;;;5076575;28;19908;-42
2022/06/25 00:30:10;;;;;;;;;;;;;;;;;;5076529;28;20356;-42
2022/06/25 00:32:35;;;;;;;;;;;;;;;;;;5058492;28;20336;-43
2022/06/25 00:35:00;;;;;;;;;;;;;;;;;;5076471;28;19940;-43
2022/06/25 00:37:26;;;;;;;;;;;;;;;;;;5076465;28;19931;-43
2022/06/25 00:39:51;;;;;;;;;;;;;;;;;;5076359;28;19977;-43
2022/06/25 00:42:16;;;;;;;;;;;;;;;;;;5076215;28;19909;-43
2022/06/25 00:44:41;;;;;;;;;;;;;;;;;;5075686;28;19909;-43
2022/06/25 00:47:06;;;;;;;;;;;;;;;;;;5076188;28;19908;-43
2022/06/25 00:49:31;;;;;;;;;;;;;;;;;;5075447;28;20363;-43
2022/06/25 00:51:56;;;;;;;;;;;;;;;;;;5075788;28;20425;-44
2022/06/25 00:54:22;;;;;;;;;;;;;;;;;;5075933;28;20331;-44
2022/06/25 00:56:47;;;;;;;;;;;;;;;;;;5075886;28;19908;-43
2022/06/25 00:59:12;;;;;;;;;;;;;;;;;;5073734;28;20367;-43
2022/06/25 01:01:37;;;;;;;;;;;;;;;;;;5056157;28;20426;-43
2022/06/25 01:04:02;;;;;;;;;;;;;;;;;;5055747;28;20263;-43
2022/06/25 01:06:28;;;;;;;;;;;;;;;;;;5055888;28;19909;-43
2022/06/25 01:08:53;;;;;;;;;;;;;;;;;;5055840;28;19909;-43
2022/06/25 01:11:18;;;;;;;;;;;;;;;;;;5055500;28;19968;-43
2022/06/25 01:13:44;;;;;;;;;;;;;;;;;;5055526;28;19916;-44
2022/06/25 01:16:09;;;;;;;;;;;;;;;;;;5055285;28;19919;-44
2022/06/25 01:18:34;;;;;;;;;;;;;;;;;;5055403;28;20002;-43
2022/06/25 01:20:59;;;;;;;;;;;;;;;;;;5055319;28;19919;-43
2022/06/25 01:23:24;;;;;;;;;;;;;;;;;;5055592;28;20287;-43
2022/06/25 01:25:49;;;;;;;;;;;;;;;;;;5055463;28;19944;-44
2022/06/25 01:28:15;;;;;;;;;;;;;;;;;;5055291;28;19948;-42
2022/06/25 01:30:40;;;;;;;;;;;;;;;;;;5055508;28;19919;-42
2022/06/25 01:33:05;;;;;;;;;;;;;;;;;;5055389;28;20307;-41
2022/06/25 01:35:30;;;;;;;;;;;;;;;;;;5055346;28;19909;-41
2022/06/25 01:37:55;;;;;;;;;;;;;;;;;;5055243;28;19954;-42
2022/06/25 01:40:20;;;;;;;;;;;;;;;;;;5055271;28;19966;-44
2022/06/25 01:43:01;;;;;;;;;;;;;;;;;;5055089;28;19916;-43
2022/06/25 01:45:26;;;;;;;;;;;;;;;;;;5055090;28;19936;-44
2022/06/25 01:47:51;;;;;;;;;;;;;;;;;;5055020;28;20295;-43
2022/06/25 01:50:16;;;;;;;;;;;;;;;;;;5054988;28;19909;-43
2022/06/25 01:52:43;;;;;;;;;;;;;;;;;;5067064;28;19913;-43
2022/06/25 01:55:08;;;;;;;;;;;;;;;;;;5075153;28;19908;-43
2022/06/25 01:57:33;;;;;;;;;;;;;;;;;;5074511;28;20007;-43
2022/06/25 01:59:58;;;;;;;;;;;;;;;;;;5074743;28;19943;-43
2022/06/25 02:02:23;;;;;;;;;;;;;;;;;;5073722;28;20252;-43
2022/06/25 02:04:48;;;;;;;;;;;;;;;;;;5074241;28;20375;-43
2022/06/25 02:07:13;;;;;;;;;;;;;;;;;;5074612;28;19936;-43
2022/06/25 02:09:38;;;;;;;;;;;;;;;;;;5074832;28;19909;-43
2022/06/25 02:12:04;;;;;;;;;;;;;;;;;;5074777;28;19920;-42
2022/06/25 02:14:29;;;;;;;;;;;;;;;;;;5074667;28;19923;-43
2022/06/25 02:16:54;;;;;;;;;;;;;;;;;;5073910;28;20382;-42
2022/06/25 02:19:19;;;;;;;;;;;;;;;;;;5074545;28;19924;-43
2022/06/25 02:21:44;;;;;;;;;;;;;;;;;;5074683;28;19908;-43
2022/06/25 02:24:09;;;;;;;;;;;;;;;;;;5074526;28;19951;-43
2022/06/25 02:26:34;;;;;;;;;;;;;;;;;;5074605;28;19913;-43
2022/06/25 02:28:59;;;;;;;;;;;;;;;;;;5074372;28;19909;-43
2022/06/25 02:31:24;;;;;;;;;;;;;;;;;;5074616;28;19909;-43
2022/06/25 02:33:49;;;;;;;;;;;;;;;;;;5074476;28;19908;-43
2022/06/25 02:36:15;;;;;;;;;;;;;;;;;;5074551;28;20363;-42
2022/06/25 02:38:40;;;;;;;;;;;;;;;;;;5074599;28;20313;-43
2022/06/25 02:41:05;;;;;;;;;;;;;;;;;;5074492;28;20341;-43
2022/06/25 02:43:30;;;;;;;;;;;;;;;;;;5074476;28;19931;-43
2022/06/25 02:45:55;;;;;;;;;;;;;;;;;;5074437;28;19909;-43
2022/06/25 02:48:20;;;;;;;;;;;;;;;;;;5074338;28;19908;-43
2022/06/25 02:50:46;;;;;;;;;;;;;;;;;;5074393;28;19908;-43
2022/06/25 02:53:11;;;;;;;;;;;;;;;;;;5074445;28;20363;-43
2022/06/25 03:01:04;;;;;;;;;;;;;;;;;;5074724;28;20312;-43
2022/06/25 03:03:29;;;;;;;;;;;;;;;;;;5074192;28;19987;-42
2022/06/25 03:05:54;;;;;;;;;;;;;;;;;;5074433;28;20379;-44
2022/06/25 03:08:20;;;;;;;;;;;;;;;;;;5074471;28;19908;-43
2022/06/25 03:10:45;;;;;;;;;;;;;;;;;;5073943;28;19915;-44
2022/06/25 03:13:10;;;;;;;;;;;;;;;;;;5075355;28;19955;-43
2022/06/25 03:15:35;;;;;;;;;;;;;;;;;;5078032;28;19954;-43
2022/06/25 03:18:00;;;;;;;;;;;;;;;;;;5077811;28;19908;-43
2022/06/25 03:20:25;;;;;;;;;;;;;;;;;;5077467;28;19946;-44
2022/06/25 03:22:51;;;;;;;;;;;;;;;;;;5077863;28;19908;-43
2022/06/25 03:25:16;;;;;;;;;;;;;;;;;;5059773;28;19908;-43
2022/06/25 03:27:41;;;;;;;;;;;;;;;;;;5077894;28;19915;-43
2022/06/25 03:30:06;;;;;;;;;;;;;;;;;;5077543;28;19916;-44
2022/06/25 03:32:31;;;;;;;;;;;;;;;;;;5077566;28;19923;-43
2022/06/25 03:34:56;;;;;;;;;;;;;;;;;;5077571;28;19908;-43
2022/06/25 03:37:21;;;;;;;;;;;;;;;;;;5077646;28;20015;-43
2022/06/25 03:39:46;;;;;;;;;;;;;;;;;;5059596;28;19991;-42
2022/06/25 03:42:11;;;;;;;;;;;;;;;;;;5077532;28;20267;-43
2022/06/25 03:44:37;;;;;;;;;;;;;;;;;;5077322;28;19961;-44
2022/06/25 03:47:02;;;;;;;;;;;;;;;;;;5077407;28;19919;-43
2022/06/25 03:49:27;;;;;;;;;;;;;;;;;;5077472;28;19962;-43
2022/06/25 03:51:52;;;;;;;;;;;;;;;;;;5077368;28;19913;-43
2022/06/25 03:54:17;;;;;;;;;;;;;;;;;;5077270;28;20329;-43
2022/06/25 03:56:42;;;;;;;;;;;;;;;;;;5077477;28;19985;-43
2022/06/25 03:59:07;;;;;;;;;;;;;;;;;;5077050;28;19952;-43
2022/06/25 04:01:32;;;;;;;;;;;;;;;;;;5077014;28;19938;-44
2022/06/25 04:03:58;;;;;;;;;;;;;;;;;;5076769;28;19908;-43
2022/06/25 04:06:23;;;;;;;;;;;;;;;;;;5077061;28;19912;-43
2022/06/25 04:08:48;;;;;;;;;;;;;;;;;;5076886;28;19909;-43
2022/06/25 04:11:13;;;;;;;;;;;;;;;;;;5076878;28;19915;-43
2022/06/25 04:13:38;;;;;;;;;;;;;;;;;;5076742;28;19916;-43
2022/06/25 04:16:03;;;;;;;;;;;;;;;;;;5076849;28;19909;-43
2022/06/25 04:18:28;;;;;;;;;;;;;;;;;;5076999;28;19912;-43
2022/06/25 04:20:53;;;;;;;;;;;;;;;;;;5076584;28;19925;-43
2022/06/25 04:23:19;;;;;;;;;;;;;;;;;;5076549;28;19909;-43
2022/06/25 04:25:44;;;;;;;;;;;;;;;;;;5075669;28;19908;-43
2022/06/25 04:30:53;;;;;;;;;;;;;;;;;;5076499;28;19931;-43
2022/06/25 04:33:18;;;;;;;;;;;;;;;;;;5076503;28;20352;-43
2022/06/25 04:35:43;;;;;;;;;;;;;;;;;;5076309;28;19908;-43
2022/06/25 04:38:08;;;;;;;;;;;;;;;;;;5076520;28;19909;-43
2022/06/25 04:40:33;;;;;;;;;;;;;;;;;;5076230;28;19970;-44
2022/06/25 04:42:59;;;;;;;;;;;;;;;;;;5076247;28;19914;-43
2022/06/25 04:45:24;;;;;;;;;;;;;;;;;;5076287;28;19947;-43
2022/06/25 04:47:49;;;;;;;;;;;;;;;;;;5076124;28;19962;-43
2022/06/25 04:50:14;;;;;;;;;;;;;;;;;;5076061;28;19962;-45
2022/06/25 04:52:39;;;;;;;;;;;;;;;;;;5076008;28;19916;-43
2022/06/25 04:55:04;;;;;;;;;;;;;;;;;;5076076;28;19991;-43
2022/06/25 04:57:29;;;;;;;;;;;;;;;;;;5075807;28;19938;-44
2022/06/25 04:59:54;;;;;;;;;;;;;;;;;;5075851;28;19919;-43
2022/06/25 05:02:19;;;;;;;;;;;;;;;;;;5075765;28;19915;-43
2022/06/25 05:04:45;;;;;;;;;;;;;;;;;;5075792;28;19909;-43
2022/06/25 05:07:10;;;;;;;;;;;;;;;;;;5075706;28;19912;-44
2022/06/25 05:09:35;;;;;;;;;;;;;;;;;;5075614;28;19908;-44
2022/06/25 05:12:00;;;;;;;;;;;;;;;;;;5057156;28;20381;-43
2022/06/25 05:14:25;;;;;;;;;;;;;;;;;;5075382;28;19987;-43
2022/06/25 05:16:50;;;;;;;;;;;;;;;;;;5075376;28;19908;-45
2022/06/25 05:19:15;;;;;;;;;;;;;;;;;;5075304;28;19916;-43
2022/06/25 05:21:41;;;;;;;;;;;;;;;;;;5075336;28;19916;-43
2022/06/25 05:24:06;;;;;;;;;;;;;;;;;;5075386;28;20291;-44
2022/06/25 05:26:31;;;;;;;;;;;;;;;;;;5075430;28;20039;-44
2022/06/25 05:28:56;;;;;;;;;;;;;;;;;;5075199;28;20003;-43
2022/06/25 05:31:21;;;;;;;;;;;;;;;;;;5075040;28;19912;-44
2022/06/25 05:33:46;;;;;;;;;;;;;;;;;;5075285;28;19909;-44
2022/06/25 05:36:11;;;;;;;;;;;;;;;;;;5075202;28;19952;-44
2022/06/25 05:38:36;;;;;;;;;;;;;;;;;;5075062;28;19913;-43
2022/06/25 05:41:07;;;;;;;;;;;;;;;;;;5075085;28;19909;-43
2022/06/25 05:43:33;;;;;;;;;;;;;;;;;;5074839;28;19952;-43
2022/06/25 05:45:58;;;;;;;;;;;;;;;;;;5074978;28;20257;-43
2022/06/25 05:48:23;;;;;;;;;;;;;;;;;;5074969;28;19912;-43
2022/06/25 05:50:48;;;;;;;;;;;;;;;;;;5074897;28;19908;-44
2022/06/25 05:53:13;;;;;;;;;;;;;;;;;;5074999;28;19912;-44
2022/06/25 05:55:38;;;;;;;;;;;;;;;;;;5074721;28;20424;-42
2022/06/25 05:58:03;;;;;;;;;;;;;;;;;;5074845;28;20267;-44
2022/06/25 06:00:28;;;;;;;;;;;;;;;;;;5074787;28;19908;-41
2022/06/25 06:02:54;;;;;;;;;;;;;;;;;;5074858;28;20359;-43
2022/06/25 06:05:19;;;;;;;;;;;;;;;;;;5074921;28;19912;-43
2022/06/25 06:07:44;;;;;;;;;;;;;;;;;;5074683;28;19908;-43
2022/06/25 06:10:09;;;;;;;;;;;;;;;;;;5056581;28;19995;-43
2022/06/25 06:12:34;;;;;;;;;;;;;;;;;;5074662;28;20007;-44
2022/06/25 06:14:59;;;;;;;;;;;;;;;;;;5074853;28;20322;-43
2022/06/25 06:17:24;;;;;;;;;;;;;;;;;;5074561;28;20413;-43
2022/06/25 06:19:49;;;;;;;;;;;;;;;;;;5074236;28;19974;-44
2022/06/25 06:22:15;;;;;;;;;;;;;;;;;;5074584;28;20003;-43
2022/06/25 06:24:40;;;;;;;;;;;;;;;;;;5074470;28;19912;-44
2022/06/25 06:27:05;;;;;;;;;;;;;;;;;;5074485;28;19920;-44
2022/06/25 06:29:30;;;;;;;;;;;;;;;;;;5074309;28;19905;-43
2022/06/25 06:31:55;;;;;;;;;;;;;;;;;;5074360;28;20368;-45
2022/06/25 06:34:20;;;;;;;;;;;;;;;;;;5074536;28;19909;-43
2022/06/25 06:36:45;;;;;;;;;;;;;;;;;;5074491;28;20248;-44
2022/06/25 06:39:11;;;;;;;;;;;;;;;;;;5074481;28;20359;-43
2022/06/25 06:41:36;;;;;;;;;;;;;;;;;;5074337;28;20363;-45
2022/06/25 06:44:01;;;;;;;;;;;;;;;;;;5074670;28;19916;-43
2022/06/25 06:46:26;;;;;;;;;;;;;;;;;;5074434;28;19908;-43
2022/06/25 06:48:51;;;;;;;;;;;;;;;;;;5076915;28;19909;-44
2022/06/25 06:51:16;;;;;;;;;;;;;;;;;;5078201;28;19909;-43
2022/06/25 06:53:41;;;;;;;;;;;;;;;;;;5078094;28;20344;-44
2022/06/25 06:56:07;;;;;;;;;;;;;;;;;;5077952;28;19914;-44
2022/06/25 06:58:32;;;;;;;;;;;;;;;;;;5078254;28;19984;-44
2022/06/25 07:00:57;;;;;;;;;;;;;;;;;;5077946;28;20011;-44
2022/06/25 07:03:22;;;;;;;;;;;;;;;;;;5077731;28;20010;-44
2022/06/25 07:05:47;;;;;;;;;;;;;;;;;;5077692;28;19955;-45
2022/06/25 07:08:12;;;;;;;;;;;;;;;;;;5077800;28;20518;-43
2022/06/25 07:10:38;;;;;;;;;;;;;;;;;;5077932;28;19969;-43
2022/06/25 07:13:03;;;;;;;;;;;;;;;;;;5077755;28;19959;-44
2022/06/25 07:15:28;;;;;;;;;;;;;;;;;;5077705;28;19909;-41
2022/06/25 07:17:53;;;;;;;;;;;;;;;;;;5077657;28;19908;-44
2022/06/25 07:20:18;;;;;;;;;;;;;;;;;;5077377;28;19920;-43
2022/06/25 07:22:43;;;;;;;;;;;;;;;;;;5077677;28;19962;-43
2022/06/25 07:25:08;;;;;;;;;;;;;;;;;;5077570;28;19917;-43
2022/06/25 07:27:33;;;;;;;;;;;;;;;;;;5077436;28;19999;-43
2022/06/25 07:29:59;;;;;;;;;;;;;;;;;;5077545;28;19955;-43
2022/06/25 07:32:24;;;;;;;;;;;;;;;;;;5077147;28;19916;-43
2022/06/25 07:34:49;;;;;;;;;;;;;;;;;;5077443;28;20291;-43
2022/06/25 07:37:14;;;;;;;;;;;;;;;;;;5077324;28;19912;-44
2022/06/25 07:39:39;;;;;;;;;;;;;;;;;;5076863;28;19974;-44
2022/06/25 07:42:04;;;;;;;;;;;;;;;;;;5077179;28;19959;-44
2022/06/25 07:44:29;;;;;;;;;;;;;;;;;;5077353;28;20489;-43
2022/06/25 07:46:55;;;;;;;;;;;;;;;;;;5077053;28;19912;-44
2022/06/25 07:49:20;;;;;;;;;;;;;;;;;;5076948;28;20315;-44
2022/06/25 07:51:57;;;;;;;;;;;;;;;;;;5076761;28;20386;-43
2022/06/25 07:54:22;;;;;;;;;;;;;;;;;;5077145;28;19924;-43
2022/06/25 07:56:47;;;;;;;;;;;;;;;;;;5076884;28;19909;-42
2022/06/25 07:59:13;;;;;;;;;;;;;;;;;;5076869;28;20306;-44
2022/06/25 08:01:38;;;;;;;;;;;;;;;;;;5077083;28;19966;-44
2022/06/25 08:04:03;;;;;;;;;;;;;;;;;;5076776;28;19953;-44
2022/06/25 08:06:28;;;;;;;;;;;;;;;;;;5076600;28;19913;-44
2022/06/25 08:08:53;;;;;;;;;;;;;;;;;;5076687;28;20020;-43
2022/06/25 08:11:18;;;;;;;;;;;;;;;;;;5076671;28;19962;-43
2022/06/25 08:13:43;;;;;;;;;;;;;;;;;;5076655;28;19912;-43
2022/06/25 08:16:09;;;;;;;;;;;;;;;;;;5058546;28;19993;-43
2022/06/25 08:18:34;;;;;;;;;;;;;;;;;;5085604;22;20371;-44
2022/06/25 08:21:00;;;;;;;;;;;;;;;;;;5076324;28;20026;-43
2022/06/25 08:23:25;;;;;;;;;;;;;;;;;;5076557;28;19993;-44
2022/06/25 08:25:50;;;;;;;;;;;;;;;;;;5076189;28;19962;-43
2022/06/25 08:28:15;;;;;;;;;;;;;;;;;;5076130;28;19974;-43
2022/06/25 08:30:42;;;;;;;;;;;;;;;;;;5076224;28;20351;-43
2022/06/25 08:33:07;;;;;;;;;;;;;;;;;;5075948;28;20363;-43
2022/06/25 08:35:32;;;;;;;;;;;;;;;;;;5076285;28;19916;-43
2022/06/25 08:37:58;;;;;;;;;;;;;;;;;;5076080;28;20430;-42
2022/06/25 08:40:23;;;;;;;;;;;;;;;;;;5076103;28;19913;-43
2022/06/25 08:42:48;;;;;;;;;;;;;;;;;;5076135;28;19919;-44
2022/06/25 08:45:15;;;;;;;;;;;;;;;;;;5075992;28;20310;-43
2022/06/25 08:47:40;;;;;;;;;;;;;;;;;;5076177;28;19926;-44
2022/06/25 08:50:05;;;;;;;;;;;;;;;;;;5073879;28;19946;-43
2022/06/25 08:52:30;;;;;;;;;;;;;;;;;;5038529;28;19974;-44
2022/06/25 08:54:56;;;;;;;;;;;;;;;;;;5055936;28;19909;-43
2022/06/25 08:57:21;;;;;;;;;;;;;;;;;;5055688;28;20314;-43
2022/06/25 08:59:46;;;;;;;;;;;;;;;;;;5055555;28;19909;-43
2022/06/25 09:02:11;;;;;;;;;;;;;;;;;;5055888;28;19908;-43
2022/06/25 09:04:37;;;;;;;;;;;;;;;;;;5055721;28;19915;-44
2022/06/25 09:07:02;;;;;;;;;;;;;;;;;;5055577;28;19913;-43
2022/06/25 09:09:27;;;;;;;;;;;;;;;;;;5055415;28;19909;-43
2022/06/25 09:11:52;;;;;;;;;;;;;;;;;;5055145;28;19919;-43
2022/06/25 09:14:17;;;;;;;;;;;;;;;;;;5055358;28;19915;-43
2022/06/25 09:16:42;;;;;;;;;;;;;;;;;;5037731;28;19966;-43
2022/06/25 09:19:08;;;;;;;;;;;;;;;;;;5056389;28;19924;-43
2022/06/25 09:21:33;;;;;;;;;;;;;;;;;;5062446;28;19913;-44
2022/06/25 09:24:01;;;;;;;;;;;;;;;;;;5055350;28;20363;-43
2022/06/25 09:26:26;;;;;;;;;;;;;;;;;;5055334;28;19931;-43
2022/06/25 09:28:52;;;;;;;;;;;;;;;;;;5055213;28;19909;-43
2022/06/25 09:31:17;;;;;;;;;;;;;;;;;;5055506;28;20271;-42
2022/06/25 09:33:42;;;;;;;;;;;;;;;;;;5055157;28;19928;-43
2022/06/25 09:36:07;;;;;;;;;;;;;;;;;;5055184;28;20276;-43
2022/06/25 09:38:32;;;;;;;;;;;;;;;;;;5054916;28;19912;-44
2022/06/25 09:40:57;;;;;;;;;;;;;;;;;;5055114;28;19913;-43
2022/06/25 09:43:23;;;;;;;;;;;;;;;;;;5055119;28;20356;-43
2022/06/25 09:45:48;;;;;;;;;;;;;;;;;;5055063;28;19909;-44
2022/06/25 09:48:13;;;;;;;;;;;;;;;;;;5054879;28;20386;-43
2022/06/25 09:50:38;;;;;;;;;;;;;;;;;;5041848;28;19959;-43
2022/06/25 09:53:03;;;;;;;;;;;;;;;;;;5034936;28;19913;-43
2022/06/25 09:55:28;;;;;;;;;;;;;;;;;;5035002;28;19913;-43
2022/06/25 09:57:53;;;;;;;;;;;;;;;;;;5034873;28;19913;-44
2022/06/25 10:00:18;;;;;;;;;;;;;;;;;;5034923;28;19909;-43
2022/06/25 10:02:44;;;;;;;;;;;;;;;;;;5034651;28;19909;-44
2022/06/25 10:05:09;;;;;;;;;;;;;;;;;;5034778;28;19909;-43
2022/06/25 10:10:18;;;;;;;;;;;;;;;;;;5034491;28;20363;-44
2022/06/25 10:12:43;;;;;;;;;;;;;;;;;;5034507;28;19913;-44
2022/06/25 10:15:09;;;;;;;;;;;;;;;;;;5034601;28;20369;-44
2022/06/25 10:17:34;;;;;;;;;;;;;;;;;;5034449;28;19909;-44
2022/06/25 10:19:59;;;;;;;;;;;;;;;;;;5034474;28;19921;-44
2022/06/25 10:22:24;;;;;;;;;;;;;;;;;;5034629;28;20000;-43
2022/06/25 10:24:49;;;;;;;;;;;;;;;;;;5039546;28;19982;-44
2022/06/25 10:27:15;;;;;;;;;;;;;;;;;;5058303;28;19962;-44
2022/06/25 10:29:40;;;;;;;;;;;;;;;;;;5058469;28;19961;-44
2022/06/25 10:32:05;;;;;;;;;;;;;;;;;;5058187;28;19927;-44
2022/06/25 10:34:30;;;;;;;;;;;;;;;;;;5040378;28;20482;-44
2022/06/25 10:36:57;;;;;;;;;;;;;;;;;;5058206;28;20404;-43
2022/06/25 10:39:22;;;;;;;;;;;;;;;;;;5057569;28;20287;-44
2022/06/25 10:44:31;;;;;;;;;;;;;;;;;;5056566;28;20000;-45
2022/06/25 10:46:56;;;;;;;;;;;;;;;;;;5058120;28;19948;-44
2022/06/25 10:49:22;;;;;;;;;;;;;;;;;;5057954;28;19954;-43
2022/06/25 10:51:48;;;;;;;;;;;;;;;;;;5058037;28;19991;-43
2022/06/25 10:54:13;;;;;;;;;;;;;;;;;;5058249;28;19991;-44
2022/06/25 10:56:38;;;;;;;;;;;;;;;;;;5058123;28;19944;-44
2022/06/25 10:59:03;;;;;;;;;;;;;;;;;;5057766;28;19916;-44
2022/06/25 11:01:28;;;;;;;;;;;;;;;;;;5057831;28;19916;-43
2022/06/25 11:03:53;;;;;;;;;;;;;;;;;;5057914;28;19932;-44
2022/06/25 11:06:18;;;;;;;;;;;;;;;;;;5057826;28;19909;-45
2022/06/25 11:08:44;;;;;;;;;;;;;;;;;;5057695;28;19909;-45
2022/06/25 11:11:09;;;;;;;;;;;;;;;;;;5058123;28;20431;-44
2022/06/25 11:13:34;;;;;;;;;;;;;;;;;;5057631;28;19913;-44
2022/06/25 11:15:59;;;;;;;;;;;;;;;;;;5057609;28;19909;-44
2022/06/25 11:18:24;;;;;;;;;;;;;;;;;;5057485;28;19963;-44
2022/06/25 11:20:51;;;;;;;;;;;;;;;;;;5057421;28;19916;-43
2022/06/25 11:23:16;;;;;;;;;;;;;;;;;;5057568;28;19909;-43
2022/06/25 11:31:09;;;;;;;;;;;;;;;;;;5057565;28;19915;-44
2022/06/25 11:33:34;;;;;;;;;;;;;;;;;;5046861;28;19916;-44
2022/06/25 11:35:59;;;;;;;;;;;;;;;;;;5077300;28;20004;-44
2022/06/25 11:38:25;;;;;;;;;;;;;;;;;;5077276;28;19912;-44
2022/06/25 11:40:50;;;;;;;;;;;;;;;;;;5077086;28;19919;-44
2022/06/25 11:43:15;;;;;;;;;;;;;;;;;;5059329;28;19913;-44
2022/06/25 11:45:40;;;;;;;;;;;;;;;;;;5075778;28;19908;-45
2022/06/25 11:48:05;;;;;;;;;;;;;;;;;;5056797;28;19912;-45
2022/06/25 11:50:30;;;;;;;;;;;;;;;;;;5056121;28;20357;-45
2022/06/25 11:52:56;;;;;;;;;;;;;;;;;;5054891;28;19917;-44
2022/06/25 11:55:21;;;;;;;;;;;;;;;;;;5056916;28;19919;-44
2022/06/25 11:57:47;;;;;;;;;;;;;;;;;;5056879;28;20379;-42
2022/06/25 12:00:13;;;;;;;;;;;;;;;;;;5056298;28;19955;-45
2022/06/25 12:02:38;;;;;;;;;;;;;;;;;;5054521;28;20365;-45
2022/06/25 12:05:04;;;;;;;;;;;;;;;;;;5056613;28;19936;-42
2022/06/25 12:07:29;;;;;;;;;;;;;;;;;;5056156;28;19916;-45
2022/06/25 12:09:54;;;;;;;;;;;;;;;;;;5056343;28;19974;-43
2022/06/25 12:12:19;;;;;;;;;;;;;;;;;;5056217;28;20279;-44
2022/06/25 12:14:44;;;;;;;;;;;;;;;;;;5056564;28;20380;-44
2022/06/25 12:17:10;;;;;;;;;;;;;;;;;;5056522;28;19916;-45
2022/06/25 12:19:35;;;;;;;;;;;;;;;;;;5056464;28;19920;-42
2022/06/25 12:22:00;;;;;;;;;;;;;;;;;;5056526;28;19931;-45
2022/06/25 12:24:25;;;;;;;;;;;;;;;;;;5056369;28;19909;-42
2022/06/25 12:26:50;;;;;;;;;;;;;;;;;;5056387;28;19961;-45
2022/06/25 12:29:15;;;;;;;;;;;;;;;;;;5056238;28;19927;-44
2022/06/25 12:31:40;;;;;;;;;;;;;;;;;;5056248;28;19935;-45
2022/06/25 12:34:05;;;;;;;;;;;;;;;;;;5056054;28;20383;-42
2022/06/25 12:36:31;;;;;;;;;;;;;;;;;;5056115;28;19909;-45
2022/06/25 12:38:56;;;;;;;;;;;;;;;;;;5056145;28;19913;-43
2022/06/25 12:41:21;;;;;;;;;;;;;;;;;;5056005;28;19913;-43
2022/06/25 12:43:46;;;;;;;;;;;;;;;;;;5055899;28;19916;-43
2022/06/25 12:46:11;;;;;;;;;;;;;;;;;;5037215;28;20394;-43
2022/06/25 12:48:36;;;;;;;;;;;;;;;;;;5055939;28;19955;-42
2022/06/25 12:51:01;;;;;;;;;;;;;;;;;;5055907;28;19913;-42
2022/06/25 12:53:27;;;;;;;;;;;;;;;;;;5055841;28;20012;-44
2022/06/25 12:55:52;;;;;;;;;;;;;;;;;;5055973;28;20383;-43
2022/06/25 12:58:18;;;;;;;;;;;;;;;;;;5055674;28;20268;-43
2022/06/25 13:00:43;;;;;;;;;;;;;;;;;;5055626;28;19932;-44
2022/06/25 13:03:08;;;;;;;;;;;;;;;;;;5055826;28;19913;-43
2022/06/25 13:05:33;;;;;;;;;;;;;;;;;;5056239;28;19908;-43
2022/06/25 13:07:58;;;;;;;;;;;;;;;;;;5055118;28;19962;-43
2022/06/25 13:10:24;;;;;;;;;;;;;;;;;;5055521;28;20273;-43
2022/06/25 13:12:55;;;;;;;;;;;;;;;;;;5055397;28;19920;-43
2022/06/25 13:15:20;;;;;;;;;;;;;;;;;;5055374;28;19995;-43
2022/06/25 13:17:45;;;;;;;;;;;;;;;;;;5055449;28;19955;-42
2022/06/25 13:20:11;;;;;;;;;;;;;;;;;;5055136;28;19917;-42
2022/06/25 13:22:38;;;;;;;;;;;;;;;;;;5055250;28;19952;-43
2022/06/25 13:25:05;;;;;;;;;;;;;;;;;;5055265;28;19915;-43
2022/06/25 13:27:32;;;;;;;;;;;;;;;;;;5055213;28;19909;-42
2022/06/25 13:29:58;;;;;;;;;;;;;;;;;;5055266;28;19916;-43
2022/06/25 13:32:23;;;;;;;;;;;;;;;;;;5055097;28;19917;-42
2022/06/25 13:34:50;;;;;;;;;;;;;;;;;;5054501;28;20143;-43
2022/06/25 13:37:15;;;;;;;;;;;;;;;;;;5055147;28;19909;-43
2022/06/25 13:39:40;;;;;;;;;;;;;;;;;;5055070;28;19912;-42
2022/06/25 13:42:05;;;;;;;;;;;;;;;;;;5054957;28;20283;-42
2022/06/25 13:44:31;;;;;;;;;;;;;;;;;;5054341;28;19909;-42
2022/06/25 13:46:56;;;;;;;;;;;;;;;;;;5054746;28;20284;-43
2022/06/25 13:49:21;;;;;;;;;;;;;;;;;;5054713;28;19909;-43
2022/06/25 13:51:46;;;;;;;;;;;;;;;;;;5054503;28;19909;-43
2022/06/25 13:54:12;;;;;;;;;;;;;;;;;;5054582;28;20038;-42
2022/06/25 13:56:37;;;;;;;;;;;;;;;;;;5054739;28;19909;-43
2022/06/25 13:59:02;;;;;;;;;;;;;;;;;;5054560;28;19909;-43
2022/06/25 14:01:28;;;;;;;;;;;;;;;;;;5054438;28;19951;-43
2022/06/25 14:03:53;;;;;;;;;;;;;;;;;;5054522;28;20003;-43
2022/06/25 14:06:18;;;;;;;;;;;;;;;;;;5054422;28;20437;-43
2022/06/25 14:08:43;;;;;;;;;;;;;;;;;;5054481;28;20334;-43
2022/06/25 14:11:08;;;;;;;;;;;;;;;;;;5054351;28;20248;-43
2022/06/25 14:13:33;;;;;;;;;;;;;;;;;;5054306;28;19916;-42
2022/06/25 14:15:59;;;;;;;;;;;;;;;;;;5054445;28;19935;-43
2022/06/25 14:18:24;;;;;;;;;;;;;;;;;;5054346;28;19971;-43
2022/06/25 14:20:49;;;;;;;;;;;;;;;;;;5054096;28;20008;-43
2022/06/25 14:23:14;;;;;;;;;;;;;;;;;;5054301;28;19916;-43
2022/06/25 14:25:39;;;;;;;;;;;;;;;;;;5054322;28;19915;-43
2022/06/25 14:28:04;;;;;;;;;;;;;;;;;;5054183;28;19909;-43
2022/06/25 14:30:32;;;;;;;;;;;;;;;;;;5054255;28;20363;-43
2022/06/25 14:32:57;;;;;;;;;;;;;;;;;;5053510;28;19920;-43
2022/06/25 14:35:22;;;;;;;;;;;;;;;;;;5054317;28;19913;-43
2022/06/25 14:43:15;;;;;;;;;;;;;;;;;;5054164;28;19912;-43
2022/06/25 14:45:40;;;;;;;;;;;;;;;;;;5054099;28;19913;-45
2022/06/25 14:48:06;;;;;;;;;;;;;;;;;;5054049;28;20011;-43
2022/06/25 14:50:32;;;;;;;;;;;;;;;;;;5054011;28;20252;-44
2022/06/25 14:52:57;;;;;;;;;;;;;;;;;;5054111;28;19919;-44
2022/06/25 14:55:22;;;;;;;;;;;;;;;;;;5054014;28;19909;-44
2022/06/25 14:57:47;;;;;;;;;;;;;;;;;;5053953;28;19909;-44
2022/06/25 15:00:12;;;;;;;;;;;;;;;;;;5053940;28;19909;-45
2022/06/25 15:02:38;;;;;;;;;;;;;;;;;;5054169;28;19913;-44
2022/06/25 15:05:03;;;;;;;;;;;;;;;;;;5053999;28;20374;-44
2022/06/25 15:07:28;;;;;;;;;;;;;;;;;;5053919;28;19909;-44
2022/06/25 15:09:53;;;;;;;;;;;;;;;;;;5056086;28;19931;-44
2022/06/25 15:12:18;;;;;;;;;;;;;;;;;;5057420;28;19917;-44
2022/06/25 15:14:43;;;;;;;;;;;;;;;;;;5057599;28;19909;-44
2022/06/25 15:17:08;;;;;;;;;;;;;;;;;;5057015;28;19913;-43
2022/06/25 15:19:34;;;;;;;;;;;;;;;;;;5057371;28;19916;-44
2022/06/25 15:21:59;;;;;;;;;;;;;;;;;;5057011;28;19909;-43
2022/06/25 15:24:24;;;;;;;;;;;;;;;;;;5057471;28;19909;-45
2022/06/25 15:26:50;;;;;;;;;;;;;;;;;;5039896;28;19909;-46
2022/06/25 15:29:15;;;;;;;;;;;;;;;;;;5057429;28;20417;-43
2022/06/25 15:31:40;;;;;;;;;;;;;;;;;;5057411;28;20382;-43
2022/06/25 15:34:05;;;;;;;;;;;;;;;;;;5057215;28;19919;-44
2022/06/25 15:36:31;;;;;;;;;;;;;;;;;;5057099;28;19940;-43
2022/06/25 15:38:56;;;;;;;;;;;;;;;;;;5057186;28;19984;-44
2022/06/25 15:41:22;;;;;;;;;;;;;;;;;;5057125;28;20035;-44
2022/06/25 15:43:47;;;;;;;;;;;;;;;;;;5057056;28;20353;-43
2022/06/25 15:46:12;;;;;;;;;;;;;;;;;;5056157;28;19962;-43
2022/06/25 15:48:37;;;;;;;;;;;;;;;;;;5057125;28;19962;-42
2022/06/25 15:51:02;;;;;;;;;;;;;;;;;;5056968;28;19913;-42
2022/06/25 15:53:27;;;;;;;;;;;;;;;;;;5056875;28;19920;-42
2022/06/25 15:55:53;;;;;;;;;;;;;;;;;;5057035;28;19909;-43
2022/06/25 15:58:18;;;;;;;;;;;;;;;;;;5056940;28;20344;-43
2022/06/25 16:00:43;;;;;;;;;;;;;;;;;;5056956;28;19909;-43
2022/06/25 16:03:08;;;;;;;;;;;;;;;;;;5075050;28;20267;-43
2022/06/25 16:05:33;;;;;;;;;;;;;;;;;;5076909;28;20263;-43
2022/06/25 16:07:59;;;;;;;;;;;;;;;;;;5076617;28;19908;-42
2022/06/25 16:10:26;;;;;;;;;;;;;;;;;;5064463;28;20008;-42
2022/06/25 16:12:51;;;;;;;;;;;;;;;;;;5055985;28;19960;-42
2022/06/25 16:15:17;;;;;;;;;;;;;;;;;;5056574;28;19915;-45
2022/06/25 16:17:42;;;;;;;;;;;;;;;;;;5056637;28;20007;-43
2022/06/25 16:20:09;;;;;;;;;;;;;;;;;;5055409;28;19921;-42
2022/06/25 16:22:34;;;;;;;;;;;;;;;;;;5056331;28;20329;-43
2022/06/25 16:25:01;;;;;;;;;;;;;;;;;;5056654;28;19995;-45
2022/06/25 16:27:27;;;;;;;;;;;;;;;;;;5056451;28;19909;-42
2022/06/25 16:29:52;;;;;;;;;;;;;;;;;;5056425;28;19912;-45
2022/06/25 16:32:17;;;;;;;;;;;;;;;;;;5056217;28;19919;-42
2022/06/25 16:34:42;;;;;;;;;;;;;;;;;;5055966;28;19964;-43
2022/06/25 16:37:07;;;;;;;;;;;;;;;;;;5056025;28;20249;-45
2022/06/25 16:39:32;;;;;;;;;;;;;;;;;;5056019;28;19962;-44
2022/06/25 16:41:58;;;;;;;;;;;;;;;;;;5056187;28;19916;-45
2022/06/25 16:44:23;;;;;;;;;;;;;;;;;;5055993;28;19913;-45
2022/06/25 16:46:48;;;;;;;;;;;;;;;;;;5055859;28;19970;-44
2022/06/25 16:49:13;;;;;;;;;;;;;;;;;;5055875;28;19947;-44
2022/06/25 16:51:38;;;;;;;;;;;;;;;;;;5055771;28;19954;-44
2022/06/25 16:54:03;;;;;;;;;;;;;;;;;;5037940;28;19912;-44
2022/06/25 16:56:31;;;;;;;;;;;;;;;;;;5073074;28;19908;-44